sensor_id;sensor_type;location;lat;lon;timestamp;P1;durP1;ratioP1;P2;durP2;ratioP2
9807;SDS011;4943;52.550;13.462;2024-01-15T00:00:54;66.30;;;39.23;;
9807;SDS011;4943;52.550;13.462;2024-01-15T00:03:23;66.90;;;39.93;;
9807;SDS011;4943;52.550;13.462;2024-01-15T00:05:51;66.67;;;39.60;;
9807;SDS011;4943;52.550;13.462;2024-01-15T00:08:19;66.40;;;39.63;;
9807;SDS011;4943;52.550;13.462;2024-01-15T00:10:47;66.60;;;40.03;;
9807;SDS011;4943;52.550;13.462;2024-01-15T00:13:16;66.50;;;40.03;;
9807;SDS011;4943;52.550;13.462;2024-01-15T00:15:44;66.27;;;39.73;;
9807;SDS011;4943;52.550;13.462;2024-01-15T00:18:12;65.87;;;39.60;;
9807;SDS011;4943;52.550;13.462;2024-01-15T00:20:41;66.03;;;39.47;;
9807;SDS011;4943;52.550;13.462;2024-01-15T00:23:09;65.57;;;39.17;;
9807;SDS011;4943;52.550;13.462;2024-01-15T00:25:37;65.63;;;39.47;;
9807;SDS011;4943;52.550;13.462;2024-01-15T00:28:05;65.80;;;39.27;;
9807;SDS011;4943;52.550;13.462;2024-01-15T00:30:34;66.07;;;39.80;;
9807;SDS011;4943;52.550;13.462;2024-01-15T00:33:03;66.07;;;39.47;;
9807;SDS011;4943;52.550;13.462;2024-01-15T00:35:31;65.33;;;39.27;;
9807;SDS011;4943;52.550;13.462;2024-01-15T00:37:59;65.50;;;38.93;;
9807;SDS011;4943;52.550;13.462;2024-01-15T00:40:27;65.77;;;39.83;;
9807;SDS011;4943;52.550;13.462;2024-01-15T00:42:55;65.27;;;39.00;;
9807;SDS011;4943;52.550;13.462;2024-01-15T00:45:23;66.47;;;39.37;;
9807;SDS011;4943;52.550;13.462;2024-01-15T00:47:53;66.23;;;39.63;;
9807;SDS011;4943;52.550;13.462;2024-01-15T00:50:23;66.20;;;39.73;;
9807;SDS011;4943;52.550;13.462;2024-01-15T00:52:51;65.07;;;39.03;;
9807;SDS011;4943;52.550;13.462;2024-01-15T00:55:19;66.43;;;39.40;;
9807;SDS011;4943;52.550;13.462;2024-01-15T00:57:47;66.17;;;39.47;;
9807;SDS011;4943;52.550;13.462;2024-01-15T01:00:15;66.37;;;39.87;;
9807;SDS011;4943;52.550;13.462;2024-01-15T01:02:44;66.63;;;39.63;;
9807;SDS011;4943;52.550;13.462;2024-01-15T01:05:13;66.00;;;39.77;;
9807;SDS011;4943;52.550;13.462;2024-01-15T01:07:41;66.40;;;39.47;;
9807;SDS011;4943;52.550;13.462;2024-01-15T01:10:09;66.37;;;39.53;;
9807;SDS011;4943;52.550;13.462;2024-01-15T01:12:37;65.37;;;39.00;;
9807;SDS011;4943;52.550;13.462;2024-01-15T01:15:05;66.10;;;39.70;;
9807;SDS011;4943;52.550;13.462;2024-01-15T01:17:34;65.57;;;39.10;;
9807;SDS011;4943;52.550;13.462;2024-01-15T01:20:02;67.03;;;40.23;;
9807;SDS011;4943;52.550;13.462;2024-01-15T01:22:34;65.33;;;39.17;;
9807;SDS011;4943;52.550;13.462;2024-01-15T01:25:02;65.33;;;39.37;;
9807;SDS011;4943;52.550;13.462;2024-01-15T01:27:31;65.97;;;39.67;;
9807;SDS011;4943;52.550;13.462;2024-01-15T01:29:59;65.07;;;38.87;;
9807;SDS011;4943;52.550;13.462;2024-01-15T01:32:28;65.43;;;39.07;;
9807;SDS011;4943;52.550;13.462;2024-01-15T01:34:56;64.63;;;38.87;;
9807;SDS011;4943;52.550;13.462;2024-01-15T01:37:24;65.87;;;39.40;;
9807;SDS011;4943;52.550;13.462;2024-01-15T01:39:54;65.43;;;39.43;;
9807;SDS011;4943;52.550;13.462;2024-01-15T01:42:22;65.63;;;39.37;;
9807;SDS011;4943;52.550;13.462;2024-01-15T01:44:50;64.57;;;38.43;;
9807;SDS011;4943;52.550;13.462;2024-01-15T01:47:18;64.77;;;38.67;;
9807;SDS011;4943;52.550;13.462;2024-01-15T01:49:46;64.87;;;39.03;;
9807;SDS011;4943;52.550;13.462;2024-01-15T01:52:15;66.20;;;39.67;;
9807;SDS011;4943;52.550;13.462;2024-01-15T01:54:43;66.13;;;39.50;;
9807;SDS011;4943;52.550;13.462;2024-01-15T01:57:12;66.27;;;39.87;;
9807;SDS011;4943;52.550;13.462;2024-01-15T01:59:43;66.60;;;39.97;;
9807;SDS011;4943;52.550;13.462;2024-01-15T02:02:11;66.03;;;39.80;;
9807;SDS011;4943;52.550;13.462;2024-01-15T02:04:39;65.67;;;39.73;;
9807;SDS011;4943;52.550;13.462;2024-01-15T02:22:18;64.87;;;39.63;;
9807;SDS011;4943;52.550;13.462;2024-01-15T02:24:47;65.20;;;39.37;;
9807;SDS011;4943;52.550;13.462;2024-01-15T02:27:15;65.00;;;39.53;;
9807;SDS011;4943;52.550;13.462;2024-01-15T02:29:45;65.30;;;39.47;;
9807;SDS011;4943;52.550;13.462;2024-01-15T02:32:14;65.00;;;39.13;;
9807;SDS011;4943;52.550;13.462;2024-01-15T02:34:42;64.97;;;39.30;;
9807;SDS011;4943;52.550;13.462;2024-01-15T02:37:10;64.53;;;39.07;;
9807;SDS011;4943;52.550;13.462;2024-01-15T02:39:38;65.20;;;39.07;;
9807;SDS011;4943;52.550;13.462;2024-01-15T02:42:07;65.77;;;40.40;;
9807;SDS011;4943;52.550;13.462;2024-01-15T02:44:35;65.20;;;39.27;;
9807;SDS011;4943;52.550;13.462;2024-01-15T02:47:04;64.80;;;39.03;;
9807;SDS011;4943;52.550;13.462;2024-01-15T02:49:32;64.90;;;39.43;;
9807;SDS011;4943;52.550;13.462;2024-01-15T02:52:00;65.30;;;39.23;;
9807;SDS011;4943;52.550;13.462;2024-01-15T02:54:29;65.17;;;39.10;;
9807;SDS011;4943;52.550;13.462;2024-01-15T02:56:57;65.57;;;39.50;;
9807;SDS011;4943;52.550;13.462;2024-01-15T02:59:26;65.63;;;39.70;;
9807;SDS011;4943;52.550;13.462;2024-01-15T03:01:56;65.20;;;39.27;;
9807;SDS011;4943;52.550;13.462;2024-01-15T03:04:24;65.50;;;39.30;;
9807;SDS011;4943;52.550;13.462;2024-01-15T03:06:52;65.57;;;39.40;;
9807;SDS011;4943;52.550;13.462;2024-01-15T03:09:20;65.77;;;39.60;;
9807;SDS011;4943;52.550;13.462;2024-01-15T03:11:48;65.47;;;39.60;;
9807;SDS011;4943;52.550;13.462;2024-01-15T03:14:16;65.93;;;39.30;;
9807;SDS011;4943;52.550;13.462;2024-01-15T03:16:45;65.20;;;39.07;;
9807;SDS011;4943;52.550;13.462;2024-01-15T03:19:13;65.57;;;39.90;;
9807;SDS011;4943;52.550;13.462;2024-01-15T03:21:41;66.17;;;39.60;;
9807;SDS011;4943;52.550;13.462;2024-01-15T03:24:10;66.50;;;39.57;;
9807;SDS011;4943;52.550;13.462;2024-01-15T03:26:38;66.07;;;39.50;;
9807;SDS011;4943;52.550;13.462;2024-01-15T03:29:06;65.97;;;39.53;;
9807;SDS011;4943;52.550;13.462;2024-01-15T03:31:35;66.17;;;39.73;;
9807;SDS011;4943;52.550;13.462;2024-01-15T03:34:04;65.90;;;39.87;;
9807;SDS011;4943;52.550;13.462;2024-01-15T03:36:32;65.30;;;39.57;;
9807;SDS011;4943;52.550;13.462;2024-01-15T03:39:01;66.00;;;39.47;;
9807;SDS011;4943;52.550;13.462;2024-01-15T03:41:29;65.70;;;39.43;;
9807;SDS011;4943;52.550;13.462;2024-01-15T03:43:57;65.93;;;39.73;;
9807;SDS011;4943;52.550;13.462;2024-01-15T03:46:25;66.03;;;39.80;;
9807;SDS011;4943;52.550;13.462;2024-01-15T03:55:58;65.20;;;39.60;;
9807;SDS011;4943;52.550;13.462;2024-01-15T03:58:26;65.70;;;39.40;;
9807;SDS011;4943;52.550;13.462;2024-01-15T04:00:54;65.77;;;39.33;;
9807;SDS011;4943;52.550;13.462;2024-01-15T04:03:22;65.97;;;39.47;;
9807;SDS011;4943;52.550;13.462;2024-01-15T04:05:51;66.17;;;39.50;;
9807;SDS011;4943;52.550;13.462;2024-01-15T04:08:19;65.80;;;39.70;;
9807;SDS011;4943;52.550;13.462;2024-01-15T04:10:47;65.57;;;40.20;;
9807;SDS011;4943;52.550;13.462;2024-01-15T04:13:18;65.90;;;39.67;;
9807;SDS011;4943;52.550;13.462;2024-01-15T04:15:46;65.80;;;39.57;;
9807;SDS011;4943;52.550;13.462;2024-01-15T04:18:16;66.63;;;40.43;;
9807;SDS011;4943;52.550;13.462;2024-01-15T04:20:45;65.77;;;39.47;;
9807;SDS011;4943;52.550;13.462;2024-01-15T04:23:13;65.90;;;39.77;;
9807;SDS011;4943;52.550;13.462;2024-01-15T04:25:41;65.50;;;39.27;;
9807;SDS011;4943;52.550;13.462;2024-01-15T04:28:09;65.93;;;39.87;;
9807;SDS011;4943;52.550;13.462;2024-01-15T04:30:38;65.87;;;39.70;;
9807;SDS011;4943;52.550;13.462;2024-01-15T04:33:07;65.30;;;40.00;;
9807;SDS011;4943;52.550;13.462;2024-01-15T04:35:35;66.13;;;39.70;;
9807;SDS011;4943;52.550;13.462;2024-01-15T04:38:03;65.60;;;39.93;;
9807;SDS011;4943;52.550;13.462;2024-01-15T04:40:31;66.27;;;39.93;;
9807;SDS011;4943;52.550;13.462;2024-01-15T04:42:59;65.30;;;39.27;;
9807;SDS011;4943;52.550;13.462;2024-01-15T04:45:27;65.90;;;39.40;;
9807;SDS011;4943;52.550;13.462;2024-01-15T04:47:57;66.17;;;39.90;;
9807;SDS011;4943;52.550;13.462;2024-01-15T04:50:26;66.40;;;39.97;;
9807;SDS011;4943;52.550;13.462;2024-01-15T04:52:54;65.53;;;39.50;;
9807;SDS011;4943;52.550;13.462;2024-01-15T04:55:22;66.43;;;39.83;;
9807;SDS011;4943;52.550;13.462;2024-01-15T04:57:50;64.67;;;38.90;;
9807;SDS011;4943;52.550;13.462;2024-01-15T05:00:18;66.03;;;40.00;;
9807;SDS011;4943;52.550;13.462;2024-01-15T05:02:46;65.80;;;39.67;;
9807;SDS011;4943;52.550;13.462;2024-01-15T05:05:16;65.80;;;39.47;;
9807;SDS011;4943;52.550;13.462;2024-01-15T05:07:44;66.53;;;39.97;;
9807;SDS011;4943;52.550;13.462;2024-01-15T05:10:12;65.07;;;38.97;;
9807;SDS011;4943;52.550;13.462;2024-01-15T05:12:40;66.63;;;41.20;;
9807;SDS011;4943;52.550;13.462;2024-01-15T05:15:08;66.27;;;39.93;;
9807;SDS011;4943;52.550;13.462;2024-01-15T05:17:37;65.83;;;39.83;;
9807;SDS011;4943;52.550;13.462;2024-01-15T05:20:05;66.17;;;39.80;;
9807;SDS011;4943;52.550;13.462;2024-01-15T05:22:35;66.10;;;40.23;;
9807;SDS011;4943;52.550;13.462;2024-01-15T05:25:04;65.73;;;39.47;;
9807;SDS011;4943;52.550;13.462;2024-01-15T05:27:32;65.87;;;39.63;;
9807;SDS011;4943;52.550;13.462;2024-01-15T05:30:00;64.40;;;39.03;;
9807;SDS011;4943;52.550;13.462;2024-01-15T05:32:29;65.83;;;39.90;;
9807;SDS011;4943;52.550;13.462;2024-01-15T05:34:57;65.97;;;40.03;;
9807;SDS011;4943;52.550;13.462;2024-01-15T05:37:25;65.40;;;40.07;;
9807;SDS011;4943;52.550;13.462;2024-01-15T05:39:55;66.37;;;40.80;;
9807;SDS011;4943;52.550;13.462;2024-01-15T05:42:23;65.80;;;39.93;;
9807;SDS011;4943;52.550;13.462;2024-01-15T05:44:51;66.60;;;40.47;;
9807;SDS011;4943;52.550;13.462;2024-01-15T05:47:19;65.40;;;39.33;;
9807;SDS011;4943;52.550;13.462;2024-01-15T05:49:50;65.63;;;39.70;;
9807;SDS011;4943;52.550;13.462;2024-01-15T05:52:18;65.63;;;39.70;;
9807;SDS011;4943;52.550;13.462;2024-01-15T05:54:47;65.73;;;39.73;;
9807;SDS011;4943;52.550;13.462;2024-01-15T05:57:16;65.90;;;40.37;;
9807;SDS011;4943;52.550;13.462;2024-01-15T05:59:45;65.40;;;39.60;;
9807;SDS011;4943;52.550;13.462;2024-01-15T06:02:13;65.77;;;40.37;;
9807;SDS011;4943;52.550;13.462;2024-01-15T06:04:41;65.17;;;39.57;;
9807;SDS011;4943;52.550;13.462;2024-01-15T06:07:09;65.73;;;40.00;;
9807;SDS011;4943;52.550;13.462;2024-01-15T06:09:37;66.33;;;40.23;;
9807;SDS011;4943;52.550;13.462;2024-01-15T06:12:06;66.97;;;40.80;;
9807;SDS011;4943;52.550;13.462;2024-01-15T06:14:36;66.13;;;40.00;;
9807;SDS011;4943;52.550;13.462;2024-01-15T06:17:04;66.47;;;40.47;;
9807;SDS011;4943;52.550;13.462;2024-01-15T06:19:32;66.47;;;40.20;;
9807;SDS011;4943;52.550;13.462;2024-01-15T06:22:01;65.93;;;40.13;;
9807;SDS011;4943;52.550;13.462;2024-01-15T06:24:29;65.83;;;39.80;;
9807;SDS011;4943;52.550;13.462;2024-01-15T06:26:57;66.50;;;40.90;;
9807;SDS011;4943;52.550;13.462;2024-01-15T06:29:26;66.37;;;40.27;;
9807;SDS011;4943;52.550;13.462;2024-01-15T06:31:55;66.37;;;40.27;;
9807;SDS011;4943;52.550;13.462;2024-01-15T06:34:24;66.33;;;40.40;;
9807;SDS011;4943;52.550;13.462;2024-01-15T06:36:52;66.33;;;40.10;;
9807;SDS011;4943;52.550;13.462;2024-01-15T06:39:20;66.40;;;40.63;;
9807;SDS011;4943;52.550;13.462;2024-01-15T06:41:48;67.47;;;41.20;;
9807;SDS011;4943;52.550;13.462;2024-01-15T06:44:16;65.73;;;40.67;;
9807;SDS011;4943;52.550;13.462;2024-01-15T06:46:47;66.37;;;41.10;;
9807;SDS011;4943;52.550;13.462;2024-01-15T06:49:17;66.67;;;41.37;;
9807;SDS011;4943;52.550;13.462;2024-01-15T06:51:45;65.73;;;40.07;;
9807;SDS011;4943;52.550;13.462;2024-01-15T06:54:15;67.13;;;41.90;;
9807;SDS011;4943;52.550;13.462;2024-01-15T06:56:43;66.90;;;40.83;;
9807;SDS011;4943;52.550;13.462;2024-01-15T06:59:11;66.10;;;40.20;;
9807;SDS011;4943;52.550;13.462;2024-01-15T07:01:43;65.47;;;40.53;;
9807;SDS011;4943;52.550;13.462;2024-01-15T07:04:11;66.87;;;40.43;;
9807;SDS011;4943;52.550;13.462;2024-01-15T07:06:41;67.13;;;40.63;;
9807;SDS011;4943;52.550;13.462;2024-01-15T07:09:09;66.70;;;40.03;;
9807;SDS011;4943;52.550;13.462;2024-01-15T07:11:37;66.77;;;40.40;;
9807;SDS011;4943;52.550;13.462;2024-01-15T07:14:05;66.37;;;40.20;;
9807;SDS011;4943;52.550;13.462;2024-01-15T07:16:33;65.80;;;40.43;;
9807;SDS011;4943;52.550;13.462;2024-01-15T07:19:04;66.63;;;40.87;;
9807;SDS011;4943;52.550;13.462;2024-01-15T07:21:32;65.53;;;40.17;;
9807;SDS011;4943;52.550;13.462;2024-01-15T07:24:01;68.30;;;40.00;;
9807;SDS011;4943;52.550;13.462;2024-01-15T07:26:30;67.07;;;41.53;;
9807;SDS011;4943;52.550;13.462;2024-01-15T07:28:58;67.03;;;40.63;;
9807;SDS011;4943;52.550;13.462;2024-01-15T07:31:26;66.00;;;40.10;;
9807;SDS011;4943;52.550;13.462;2024-01-15T07:33:55;66.10;;;40.73;;
9807;SDS011;4943;52.550;13.462;2024-01-15T07:36:23;65.83;;;40.17;;
9807;SDS011;4943;52.550;13.462;2024-01-15T07:38:51;66.53;;;42.00;;
9807;SDS011;4943;52.550;13.462;2024-01-15T07:41:21;65.43;;;39.77;;
9807;SDS011;4943;52.550;13.462;2024-01-15T07:43:49;66.00;;;40.47;;
9807;SDS011;4943;52.550;13.462;2024-01-15T07:46:18;65.77;;;41.37;;
9807;SDS011;4943;52.550;13.462;2024-01-15T07:48:46;66.63;;;41.20;;
9807;SDS011;4943;52.550;13.462;2024-01-15T07:51:14;66.60;;;40.73;;
9807;SDS011;4943;52.550;13.462;2024-01-15T07:53:42;66.43;;;41.47;;
9807;SDS011;4943;52.550;13.462;2024-01-15T07:56:10;66.43;;;41.67;;
9807;SDS011;4943;52.550;13.462;2024-01-15T07:58:39;66.43;;;40.77;;
9807;SDS011;4943;52.550;13.462;2024-01-15T08:01:07;65.70;;;40.37;;
9807;SDS011;4943;52.550;13.462;2024-01-15T08:03:36;66.50;;;40.90;;
9807;SDS011;4943;52.550;13.462;2024-01-15T08:06:04;66.83;;;40.90;;
9807;SDS011;4943;52.550;13.462;2024-01-15T08:08:36;66.37;;;41.03;;
9807;SDS011;4943;52.550;13.462;2024-01-15T08:11:05;65.00;;;39.63;;
9807;SDS011;4943;52.550;13.462;2024-01-15T08:13:33;65.43;;;40.00;;
9807;SDS011;4943;52.550;13.462;2024-01-15T08:16:02;66.33;;;40.57;;
9807;SDS011;4943;52.550;13.462;2024-01-15T08:18:31;66.10;;;40.67;;
9807;SDS011;4943;52.550;13.462;2024-01-15T08:20:59;66.33;;;40.10;;
9807;SDS011;4943;52.550;13.462;2024-01-15T08:23:27;66.03;;;40.37;;
9807;SDS011;4943;52.550;13.462;2024-01-15T08:25:57;65.73;;;40.43;;
9807;SDS011;4943;52.550;13.462;2024-01-15T08:28:25;65.77;;;40.07;;
9807;SDS011;4943;52.550;13.462;2024-01-15T08:30:53;67.77;;;41.77;;
9807;SDS011;4943;52.550;13.462;2024-01-15T08:33:23;66.80;;;41.07;;
9807;SDS011;4943;52.550;13.462;2024-01-15T08:35:51;66.10;;;40.37;;
9807;SDS011;4943;52.550;13.462;2024-01-15T08:38:20;66.60;;;40.20;;
9807;SDS011;4943;52.550;13.462;2024-01-15T08:40:48;66.73;;;40.03;;
9807;SDS011;4943;52.550;13.462;2024-01-15T08:43:17;67.87;;;41.57;;
9807;SDS011;4943;52.550;13.462;2024-01-15T08:45:45;67.10;;;40.30;;
9807;SDS011;4943;52.550;13.462;2024-01-15T08:48:14;67.47;;;40.80;;
9807;SDS011;4943;52.550;13.462;2024-01-15T08:50:44;68.27;;;40.47;;
9807;SDS011;4943;52.550;13.462;2024-01-15T08:53:14;66.93;;;39.93;;
9807;SDS011;4943;52.550;13.462;2024-01-15T08:55:43;67.37;;;40.73;;
9807;SDS011;4943;52.550;13.462;2024-01-15T08:58:12;67.57;;;41.50;;
9807;SDS011;4943;52.550;13.462;2024-01-15T09:00:40;66.90;;;40.50;;
9807;SDS011;4943;52.550;13.462;2024-01-15T09:03:08;67.30;;;40.57;;
9807;SDS011;4943;52.550;13.462;2024-01-15T09:05:36;67.40;;;40.77;;
9807;SDS011;4943;52.550;13.462;2024-01-15T09:08:07;67.57;;;41.03;;
9807;SDS011;4943;52.550;13.462;2024-01-15T09:10:35;67.80;;;41.27;;
9807;SDS011;4943;52.550;13.462;2024-01-15T09:13:03;67.07;;;40.87;;
9807;SDS011;4943;52.550;13.462;2024-01-15T09:15:31;65.93;;;40.10;;
9807;SDS011;4943;52.550;13.462;2024-01-15T09:18:00;66.90;;;40.67;;
9807;SDS011;4943;52.550;13.462;2024-01-15T09:20:33;68.30;;;40.30;;
9807;SDS011;4943;52.550;13.462;2024-01-15T09:23:01;65.90;;;39.77;;
9807;SDS011;4943;52.550;13.462;2024-01-15T09:25:31;67.20;;;40.73;;
9807;SDS011;4943;52.550;13.462;2024-01-15T09:27:59;67.00;;;40.07;;
9807;SDS011;4943;52.550;13.462;2024-01-15T09:30:27;67.07;;;40.23;;
9807;SDS011;4943;52.550;13.462;2024-01-15T09:32:55;66.40;;;39.77;;
9807;SDS011;4943;52.550;13.462;2024-01-15T09:35:24;67.00;;;39.83;;
9807;SDS011;4943;52.550;13.462;2024-01-15T09:37:53;67.33;;;40.63;;
9807;SDS011;4943;52.550;13.462;2024-01-15T09:40:21;67.77;;;40.33;;
9807;SDS011;4943;52.550;13.462;2024-01-15T09:42:51;67.67;;;40.23;;
9807;SDS011;4943;52.550;13.462;2024-01-15T09:45:19;68.07;;;40.30;;
9807;SDS011;4943;52.550;13.462;2024-01-15T09:47:48;68.63;;;40.87;;
9807;SDS011;4943;52.550;13.462;2024-01-15T09:50:16;68.43;;;40.43;;
9807;SDS011;4943;52.550;13.462;2024-01-15T09:52:44;69.63;;;40.97;;
9807;SDS011;4943;52.550;13.462;2024-01-15T09:55:12;68.53;;;40.60;;
9807;SDS011;4943;52.550;13.462;2024-01-15T09:57:41;68.70;;;40.43;;
9807;SDS011;4943;52.550;13.462;2024-01-15T10:00:12;68.97;;;40.47;;
9807;SDS011;4943;52.550;13.462;2024-01-15T10:02:42;69.43;;;41.07;;
9807;SDS011;4943;52.550;13.462;2024-01-15T10:05:10;69.23;;;40.83;;
9807;SDS011;4943;52.550;13.462;2024-01-15T10:07:38;69.50;;;41.70;;
9807;SDS011;4943;52.550;13.462;2024-01-15T10:10:07;69.17;;;40.47;;
9807;SDS011;4943;52.550;13.462;2024-01-15T10:12:37;70.63;;;42.07;;
9807;SDS011;4943;52.550;13.462;2024-01-15T10:15:08;71.00;;;41.90;;
9807;SDS011;4943;52.550;13.462;2024-01-15T10:17:39;70.77;;;42.40;;
9807;SDS011;4943;52.550;13.462;2024-01-15T10:20:08;69.87;;;40.80;;
9807;SDS011;4943;52.550;13.462;2024-01-15T10:22:39;69.67;;;41.83;;
9807;SDS011;4943;52.550;13.462;2024-01-15T10:25:10;69.73;;;41.37;;
9807;SDS011;4943;52.550;13.462;2024-01-15T10:27:39;69.57;;;41.13;;
9807;SDS011;4943;52.550;13.462;2024-01-15T10:30:08;69.97;;;41.03;;
9807;SDS011;4943;52.550;13.462;2024-01-15T10:32:36;69.83;;;41.10;;
9807;SDS011;4943;52.550;13.462;2024-01-15T10:35:07;69.70;;;41.20;;
9807;SDS011;4943;52.550;13.462;2024-01-15T10:37:35;70.07;;;41.77;;
9807;SDS011;4943;52.550;13.462;2024-01-15T10:40:04;68.70;;;40.20;;
9807;SDS011;4943;52.550;13.462;2024-01-15T10:42:32;68.07;;;40.27;;
9807;SDS011;4943;52.550;13.462;2024-01-15T10:45:01;69.10;;;41.33;;
9807;SDS011;4943;52.550;13.462;2024-01-15T10:47:29;68.90;;;41.30;;
9807;SDS011;4943;52.550;13.462;2024-01-15T10:49:59;69.23;;;41.60;;
9807;SDS011;4943;52.550;13.462;2024-01-15T10:52:28;69.43;;;41.47;;
9807;SDS011;4943;52.550;13.462;2024-01-15T10:54:56;69.50;;;41.47;;
9807;SDS011;4943;52.550;13.462;2024-01-15T10:57:30;68.40;;;40.00;;
9807;SDS011;4943;52.550;13.462;2024-01-15T10:59:59;72.20;;;41.70;;
9807;SDS011;4943;52.550;13.462;2024-01-15T11:02:29;69.63;;;41.03;;
9807;SDS011;4943;52.550;13.462;2024-01-15T11:04:59;69.67;;;40.80;;
9807;SDS011;4943;52.550;13.462;2024-01-15T11:07:28;69.90;;;42.10;;
9807;SDS011;4943;52.550;13.462;2024-01-15T11:10:02;69.90;;;41.20;;
9807;SDS011;4943;52.550;13.462;2024-01-15T11:12:31;68.70;;;41.27;;
9807;SDS011;4943;52.550;13.462;2024-01-15T11:15:03;70.03;;;41.73;;
9807;SDS011;4943;52.550;13.462;2024-01-15T11:20:31;69.07;;;41.30;;
9807;SDS011;4943;52.550;13.462;2024-01-15T11:22:59;69.47;;;41.50;;
9807;SDS011;4943;52.550;13.462;2024-01-15T11:25:34;68.70;;;40.70;;
9807;SDS011;4943;52.550;13.462;2024-01-15T11:28:04;69.50;;;40.70;;
9807;SDS011;4943;52.550;13.462;2024-01-15T11:30:32;68.57;;;40.03;;
9807;SDS011;4943;52.550;13.462;2024-01-15T11:33:03;69.67;;;41.40;;
9807;SDS011;4943;52.550;13.462;2024-01-15T11:35:50;69.90;;;41.00;;
9807;SDS011;4943;52.550;13.462;2024-01-15T11:38:27;67.80;;;39.73;;
9807;SDS011;4943;52.550;13.462;2024-01-15T11:40:56;69.03;;;40.10;;
9807;SDS011;4943;52.550;13.462;2024-01-15T11:43:28;69.37;;;40.43;;
9807;SDS011;4943;52.550;13.462;2024-01-15T11:45:58;68.40;;;40.07;;
9807;SDS011;4943;52.550;13.462;2024-01-15T11:48:31;68.93;;;40.53;;
9807;SDS011;4943;52.550;13.462;2024-01-15T11:51:12;67.87;;;40.03;;
9807;SDS011;4943;52.550;13.462;2024-01-15T11:53:43;66.93;;;40.17;;
9807;SDS011;4943;52.550;13.462;2024-01-15T11:56:14;67.53;;;40.33;;
9807;SDS011;4943;52.550;13.462;2024-01-15T11:58:43;69.40;;;41.60;;
9807;SDS011;4943;52.550;13.462;2024-01-15T12:01:12;67.87;;;40.13;;
9807;SDS011;4943;52.550;13.462;2024-01-15T12:03:40;66.97;;;40.17;;
9807;SDS011;4943;52.550;13.462;2024-01-15T12:06:08;66.93;;;40.73;;
9807;SDS011;4943;52.550;13.462;2024-01-15T12:08:39;68.13;;;42.17;;
9807;SDS011;4943;52.550;13.462;2024-01-15T12:11:07;66.77;;;40.07;;
9807;SDS011;4943;52.550;13.462;2024-01-15T12:13:41;66.83;;;40.00;;
9807;SDS011;4943;52.550;13.462;2024-01-15T12:16:09;67.13;;;40.83;;
9807;SDS011;4943;52.550;13.462;2024-01-15T12:18:38;65.97;;;39.63;;
9807;SDS011;4943;52.550;13.462;2024-01-15T12:21:06;67.07;;;40.93;;
9807;SDS011;4943;52.550;13.462;2024-01-15T12:23:34;66.73;;;40.87;;
9807;SDS011;4943;52.550;13.462;2024-01-15T12:26:04;66.47;;;40.20;;
9807;SDS011;4943;52.550;13.462;2024-01-15T12:28:32;66.37;;;40.07;;
9807;SDS011;4943;52.550;13.462;2024-01-15T12:31:00;66.23;;;40.50;;
9807;SDS011;4943;52.550;13.462;2024-01-15T12:33:32;65.47;;;39.77;;
9807;SDS011;4943;52.550;13.462;2024-01-15T12:36:01;66.67;;;40.63;;
9807;SDS011;4943;52.550;13.462;2024-01-15T12:38:29;66.53;;;40.97;;
9807;SDS011;4943;52.550;13.462;2024-01-15T12:40:57;65.70;;;40.10;;
9807;SDS011;4943;52.550;13.462;2024-01-15T12:43:28;66.57;;;40.90;;
9807;SDS011;4943;52.550;13.462;2024-01-15T12:45:56;65.90;;;40.07;;
9807;SDS011;4943;52.550;13.462;2024-01-15T12:48:24;65.43;;;39.93;;
9807;SDS011;4943;52.550;13.462;2024-01-15T12:50:53;65.90;;;40.13;;
9807;SDS011;4943;52.550;13.462;2024-01-15T12:53:21;66.23;;;40.93;;
9807;SDS011;4943;52.550;13.462;2024-01-15T12:55:49;65.33;;;40.13;;
9807;SDS011;4943;52.550;13.462;2024-01-15T12:58:18;64.77;;;39.97;;
9807;SDS011;4943;52.550;13.462;2024-01-15T13:00:48;65.97;;;40.27;;
9807;SDS011;4943;52.550;13.462;2024-01-15T13:03:16;66.10;;;41.00;;
9807;SDS011;4943;52.550;13.462;2024-01-15T13:05:44;66.40;;;40.57;;
9807;SDS011;4943;52.550;13.462;2024-01-15T13:08:13;65.43;;;40.37;;
9807;SDS011;4943;52.550;13.462;2024-01-15T13:10:41;66.13;;;40.17;;
9807;SDS011;4943;52.550;13.462;2024-01-15T13:13:09;66.10;;;40.23;;
9807;SDS011;4943;52.550;13.462;2024-01-15T13:15:37;66.67;;;40.37;;
9807;SDS011;4943;52.550;13.462;2024-01-15T13:18:07;66.73;;;41.30;;
9807;SDS011;4943;52.550;13.462;2024-01-15T13:20:36;66.37;;;40.13;;
9807;SDS011;4943;52.550;13.462;2024-01-15T13:23:04;66.80;;;41.30;;
9807;SDS011;4943;52.550;13.462;2024-01-15T13:25:32;66.03;;;40.30;;
9807;SDS011;4943;52.550;13.462;2024-01-15T13:28:02;65.73;;;40.40;;
9807;SDS011;4943;52.550;13.462;2024-01-15T13:30:31;66.33;;;40.43;;
9807;SDS011;4943;52.550;13.462;2024-01-15T13:32:59;66.53;;;40.60;;
9807;SDS011;4943;52.550;13.462;2024-01-15T13:35:32;65.60;;;40.83;;
9807;SDS011;4943;52.550;13.462;2024-01-15T13:38:02;66.37;;;40.30;;
9807;SDS011;4943;52.550;13.462;2024-01-15T13:40:30;66.60;;;41.23;;
9807;SDS011;4943;52.550;13.462;2024-01-15T13:42:58;66.43;;;40.50;;
9807;SDS011;4943;52.550;13.462;2024-01-15T13:45:26;65.33;;;39.97;;
9807;SDS011;4943;52.550;13.462;2024-01-15T13:47:54;65.60;;;40.70;;
9807;SDS011;4943;52.550;13.462;2024-01-15T13:50:22;66.23;;;40.00;;
9807;SDS011;4943;52.550;13.462;2024-01-15T13:52:52;66.27;;;40.80;;
9807;SDS011;4943;52.550;13.462;2024-01-15T13:55:20;66.57;;;41.30;;
9807;SDS011;4943;52.550;13.462;2024-01-15T13:57:49;65.67;;;40.30;;
9807;SDS011;4943;52.550;13.462;2024-01-15T14:00:17;66.50;;;40.33;;
9807;SDS011;4943;52.550;13.462;2024-01-15T14:02:46;66.23;;;40.67;;
9807;SDS011;4943;52.550;13.462;2024-01-15T14:05:15;67.27;;;41.37;;
9807;SDS011;4943;52.550;13.462;2024-01-15T14:07:43;65.73;;;40.67;;
9807;SDS011;4943;52.550;13.462;2024-01-15T14:10:12;65.47;;;40.23;;
9807;SDS011;4943;52.550;13.462;2024-01-15T14:12:40;65.60;;;39.97;;
9807;SDS011;4943;52.550;13.462;2024-01-15T14:15:08;65.90;;;40.83;;
9807;SDS011;4943;52.550;13.462;2024-01-15T14:17:37;65.17;;;40.30;;
9807;SDS011;4943;52.550;13.462;2024-01-15T14:20:06;65.23;;;40.10;;
9807;SDS011;4943;52.550;13.462;2024-01-15T14:22:36;66.17;;;40.67;;
9807;SDS011;4943;52.550;13.462;2024-01-15T14:25:04;65.53;;;40.40;;
9807;SDS011;4943;52.550;13.462;2024-01-15T14:27:34;65.70;;;40.87;;
9807;SDS011;4943;52.550;13.462;2024-01-15T14:30:03;65.43;;;40.00;;
9807;SDS011;4943;52.550;13.462;2024-01-15T14:32:35;65.20;;;40.50;;
9807;SDS011;4943;52.550;13.462;2024-01-15T14:35:03;65.30;;;40.03;;
9807;SDS011;4943;52.550;13.462;2024-01-15T14:37:32;65.10;;;40.23;;
9807;SDS011;4943;52.550;13.462;2024-01-15T14:40:00;64.70;;;39.93;;
9807;SDS011;4943;52.550;13.462;2024-01-15T14:42:28;65.53;;;41.00;;
9807;SDS011;4943;52.550;13.462;2024-01-15T14:44:58;65.57;;;41.07;;
9807;SDS011;4943;52.550;13.462;2024-01-15T14:47:27;64.80;;;39.67;;
9807;SDS011;4943;52.550;13.462;2024-01-15T14:49:55;65.70;;;41.20;;
9807;SDS011;4943;52.550;13.462;2024-01-15T14:52:24;65.80;;;41.40;;
9807;SDS011;4943;52.550;13.462;2024-01-15T14:54:52;65.07;;;39.80;;
9807;SDS011;4943;52.550;13.462;2024-01-15T14:57:20;65.93;;;41.27;;
9807;SDS011;4943;52.550;13.462;2024-01-15T14:59:48;65.27;;;40.83;;
9807;SDS011;4943;52.550;13.462;2024-01-15T15:02:17;65.83;;;41.67;;
9807;SDS011;4943;52.550;13.462;2024-01-15T15:04:46;65.03;;;40.70;;
9807;SDS011;4943;52.550;13.462;2024-01-15T15:07:15;64.60;;;40.77;;